East Corinth, ME (04427)

6:47 PM EDT on July 23, 2016 (GMT -0400)
Stonyvale Farms | | Change Station

Elev 269 ft 44.95 °N, 69.12 °W | Updated 4 minutes ago

Scattered Clouds
Scattered Clouds
75.8 °F
Feels Like 77 °F
N
5.0
Wind Variable Wind from WSW
Gusts 8.0 mph

Today
High -- | Low -- °F
--% Chance of Precip.
Yesterday
High -- | Low -- °F
Precip. -- in
Pressure 29.71 in
Visibility 10.0 miles
Clouds Few 5000 ft
Scattered Clouds 12000 ft
Scattered Clouds 20000 ft
Heat Index 77 °F
Dew Point 69 °F
Humidity 78%
Rainfall 0.02 in
Snow Depth Not available.
5:12 AM 8:12 PM
Waning Gibbous, 82% visible
METAR KBGR 232153Z VRB05KT 10SM FEW050 SCT120 SCT200 26/19 A2972 RMK AO2 RAE18 TSE18 SLP061 CB DSNT NE + S MOD CU W P0001 T02560189
Pressure 29.71 in
Visibility 10.0 miles
Clouds Few 5000 ft
Scattered Clouds 12000 ft
Scattered Clouds 20000 ft
Heat Index 77 °F
Dew Point 69 °F
Humidity 78%
Rainfall 0.02 in
Snow Depth Not available.
5:12 AM 8:12 PM
Waning Gibbous, 82% visible
METAR KBGR 232153Z VRB05KT 10SM FEW050 SCT120 SCT200 26/19 A2972 RMK AO2 RAE18 TSE18 SLP061 CB DSNT NE + S MOD CU W P0001 T02560189

10-Day Weather Forecast

Almanac

Astronomy

Jul. 23, 2016 Rise Set
Actual Time
Civil Twilight
Nautical Twilight
Astronomical Twilight
Moon
Length of Visible Light
Length of Day
Tomorrow will be .
, % of the Moon is Illuminated

Today's Extremes

State Highs State Lows

Community

WunderPhotos

Upload Photos

1,926,950 photos uploaded!

WunderBlog® & News

Nearby

Air Quality

  Air Quality AQ Index Pollutant
Not available.

Snow Depth

Station Depth Elevation

Earthquake Activity

City Distance Mag. Time & Date
Minimum magnitude displayed is 2.5.

Coastal Water Temperatures

Place Temperature

Stations

Nearby Weather Stations

Station Location Temp. Windchill Dew Point Humidity Wind Precip. Elev Updated Type
                   

Watches & Warnings

There are currently no watches in effect.